Time;durP1;ratioP1;P1;durP2;ratioP2;P2;SDS_P1;SDS_P2;PMS_P1;PMS_P2;Temp;Humidity;BMP_temperature;BMP_pressure;BME280_temperature;BME280_humidity;BME280_pressure;Samples;Min_cycle;Max_cycle;Signal;HPM_P1;HPM_P2
2023/08/12 00:00:17;;;;;;;9.32;2.42;;;22.10;99.90;;;;;;5051726;28;20397;-68
2023/08/12 00:02:44;;;;;;;4.65;1.95;;;21.80;99.90;;;;;;5052184;28;20021;-68
2023/08/12 00:05:11;;;;;;;3.33;1.70;;;21.90;99.90;;;;;;5035150;28;20041;-68
2023/08/12 00:07:41;;;;;;;3.80;1.92;;;21.90;99.90;;;;;;5035137;28;20032;-68
2023/08/12 00:10:08;;;;;;;3.80;2.20;;;21.90;99.90;;;;;;5051304;28;20108;-68
2023/08/12 00:12:38;;;;;;;2.40;1.58;;;21.80;99.90;;;;;;5051983;28;20021;-67
2023/08/12 00:15:07;;;;;;;3.03;1.40;;;21.80;99.90;;;;;;5051433;28;20017;-68
2023/08/12 00:17:35;;;;;;;3.10;1.83;;;21.90;99.90;;;;;;5051403;28;20032;-68
2023/08/12 00:20:05;;;;;;;2.72;1.80;;;21.90;99.90;;;;;;5051009;28;20069;-68
2023/08/12 00:22:31;;;;;;;4.55;1.52;;;21.50;99.90;;;;;;5050523;28;20075;-68
2023/08/12 00:24:57;;;;;;;8.80;1.45;;;21.60;99.90;;;;;;5052251;28;20028;-68
2023/08/12 00:27:22;;;;;;;5.03;2.13;;;21.70;99.90;;;;;;5052263;28;20025;-67
2023/08/12 00:29:48;;;;;;;4.70;2.13;;;21.70;99.90;;;;;;5050670;28;20025;-68
2023/08/12 00:32:14;;;;;;;6.15;1.90;;;21.80;99.90;;;;;;5051981;28;20107;-67
2023/08/12 00:34:40;;;;;;;3.63;1.80;;;21.80;99.90;;;;;;5051712;28;20032;-68
2023/08/12 00:37:05;;;;;;;6.07;2.08;;;21.70;99.90;;;;;;5050668;28;20021;-68
2023/08/12 00:39:31;;;;;;;3.90;1.80;;;21.60;99.90;;;;;;5034282;28;20044;-68
2023/08/12 00:41:57;;;;;;;2.78;1.50;;;21.70;99.90;;;;;;5052166;28;20048;-68
2023/08/12 00:44:23;;;;;;;7.28;1.95;;;21.70;99.90;;;;;;5051423;28;20051;-67
2023/08/12 00:46:49;;;;;;;2.67;1.20;;;21.70;99.90;;;;;;5051706;28;20497;-68
2023/08/12 00:49:16;;;;;;;3.50;1.95;;;21.80;99.90;;;;;;5050727;28;20381;-68
2023/08/12 00:51:44;;;;;;;4.07;2.10;;;21.60;99.90;;;;;;5033644;28;20033;-67
2023/08/12 00:54:15;;;;;;;4.65;1.60;;;21.60;99.90;;;;;;5049845;28;20033;-68
2023/08/12 00:56:41;;;;;;;3.90;1.65;;;21.60;99.90;;;;;;5050505;28;20037;-67
2023/08/12 00:59:09;;;;;;;4.03;1.80;;;21.60;99.90;;;;;;5051812;28;20388;-68
2023/08/12 01:01:43;;;;;;;2.35;1.38;;;21.50;99.90;;;;;;5051502;28;20025;-67
2023/08/12 01:04:10;;;;;;;2.60;1.75;;;21.40;99.90;;;;;;5047344;28;20077;-67
2023/08/12 01:06:36;;;;;;;5.78;2.17;;;21.20;99.90;;;;;;5036650;28;20512;-68
2023/08/12 01:09:05;;;;;;;4.57;2.20;;;21.20;99.90;;;;;;5047905;28;20109;-67
2023/08/12 01:11:57;;;;;;;4.15;2.50;;;21.10;99.90;;;;;;5046362;28;20573;-68
2023/08/12 01:14:32;;;;;;;2.92;1.63;;;21.20;99.90;;;;;;5029427;28;20091;-67
2023/08/12 01:17:06;;;;;;;6.03;2.70;;;21.30;99.90;;;;;;5030273;28;20053;-67
2023/08/12 01:19:40;;;;;;;3.58;2.05;;;21.40;99.90;;;;;;5030386;28;20026;-69
2023/08/12 01:22:11;;;;;;;5.07;1.95;;;21.50;99.90;;;;;;5031483;28;20037;-67
2023/08/12 01:24:43;;;;;;;5.28;1.52;;;21.50;99.90;;;;;;5039885;28;20033;-67
2023/08/12 01:27:11;;;;;;;3.22;1.60;;;21.60;99.90;;;;;;5046814;28;20060;-66
2023/08/12 01:29:44;;;;;;;3.60;1.70;;;21.70;99.90;;;;;;5029883;28;20119;-67
2023/08/12 01:32:42;;;;;;;3.55;1.88;;;21.70;99.90;;;;;;5031404;28;20516;-67
2023/08/12 01:35:33;;;;;;;5.72;2.35;;;21.80;99.90;;;;;;5017399;28;20042;-67
2023/08/12 01:37:59;;;;;;;;;;;21.90;99.90;;;;;;5031787;28;20040;-67
2023/08/12 01:40:28;;;;;;;5.70;2.70;;;22.00;99.90;;;;;;5029649;28;20023;-67
2023/08/12 01:42:54;;;;;;;9.00;2.13;;;22.00;99.90;;;;;;5030217;28;20033;-67
2023/08/12 01:45:19;;;;;;;6.90;2.58;;;22.00;99.90;;;;;;5030743;28;20044;-67
2023/08/12 01:47:46;;;;;;;4.00;2.13;;;21.90;99.90;;;;;;5029769;28;20033;-66
2023/08/12 01:50:11;;;;;;;5.93;2.55;;;21.90;99.90;;;;;;5030842;28;20368;-66
2023/08/12 01:52:37;;;;;;;3.90;2.10;;;21.90;99.90;;;;;;5030206;28;20029;-66
2023/08/12 01:55:04;;;;;;;8.93;2.95;;;21.90;99.90;;;;;;5030966;28;20041;-66
2023/08/12 01:57:29;;;;;;;3.97;2.13;;;22.00;99.90;;;;;;5042366;28;20377;-66
2023/08/12 01:59:55;;;;;;;3.22;1.80;;;22.00;99.90;;;;;;5050481;28;20029;-66
2023/08/12 02:02:21;;;;;;;4.30;1.88;;;21.90;99.90;;;;;;5046684;28;20472;-66
2023/08/12 02:04:47;;;;;;;4.72;1.92;;;22.00;99.90;;;;;;5048493;28;20021;-66
2023/08/12 02:07:12;;;;;;;3.88;1.90;;;22.00;99.90;;;;;;5049043;28;20029;-66
2023/08/12 02:09:38;;;;;;;3.38;2.08;;;22.10;99.90;;;;;;5049423;28;20021;-66
2023/08/12 02:12:05;;;;;;;3.80;1.70;;;22.00;99.90;;;;;;5049377;28;20033;-66
2023/08/12 02:14:30;;;;;;;2.55;1.38;;;22.00;99.90;;;;;;5048922;28;20017;-66
2023/08/12 02:16:56;;;;;;;3.58;1.95;;;21.90;99.90;;;;;;5050390;28;20079;-66
2023/08/12 02:19:22;;;;;;;3.25;2.10;;;21.90;99.90;;;;;;5049132;28;20062;-66
2023/08/12 02:21:47;;;;;;;2.53;1.58;;;21.90;99.90;;;;;;5049238;28;20046;-66
2023/08/12 02:24:13;;;;;;;4.38;2.33;;;22.00;99.90;;;;;;5050040;28;20040;-66
2023/08/12 02:26:39;;;;;;;5.28;1.85;;;22.10;99.90;;;;;;5049109;28;20029;-66
2023/08/12 02:29:05;;;;;;;3.65;1.83;;;22.00;99.90;;;;;;5050486;28;20385;-66
2023/08/12 02:31:30;;;;;;;6.47;1.90;;;22.00;99.90;;;;;;5049087;28;20074;-66
2023/08/12 02:33:56;;;;;;;5.30;2.10;;;21.90;99.90;;;;;;5049559;28;20033;-66
2023/08/12 02:36:22;;;;;;;4.03;2.40;;;21.80;99.90;;;;;;5049078;28;20036;-68
2023/08/12 02:38:47;;;;;;;9.65;2.08;;;21.80;99.90;;;;;;5049364;28;20059;-67
2023/08/12 02:41:13;;;;;;;2.22;1.50;;;21.80;99.90;;;;;;5050192;28;20072;-67
2023/08/12 02:43:39;;;;;;;3.85;1.98;;;21.90;99.90;;;;;;5049468;28;20033;-67
2023/08/12 02:46:05;;;;;;;6.60;1.85;;;22.00;99.90;;;;;;5050263;28;20488;-67
2023/08/12 02:48:30;;;;;;;3.17;1.58;;;22.00;99.90;;;;;;5049970;28;20117;-67
2023/08/12 02:50:56;;;;;;;3.22;1.85;;;22.00;99.90;;;;;;5048927;28;20481;-67
2023/08/12 02:53:22;;;;;;;3.83;2.15;;;22.00;99.90;;;;;;5049287;28;20033;-67
2023/08/12 02:55:48;;;;;;;2.92;1.50;;;22.00;99.90;;;;;;5048979;28;20123;-67
2023/08/12 02:58:13;;;;;;;2.83;1.63;;;21.90;99.90;;;;;;5048784;28;20036;-67
2023/08/12 03:00:45;;;;;;;4.72;2.00;;;22.10;99.90;;;;;;5049932;28;20037;-67
2023/08/12 03:03:11;;;;;;;3.78;1.90;;;22.20;99.90;;;;;;5043587;28;20033;-67
2023/08/12 03:05:37;;;;;;;2.85;1.35;;;22.20;99.90;;;;;;5048590;28;20547;-67
2023/08/12 03:08:03;;;;;;;4.45;2.28;;;22.30;99.90;;;;;;5049822;28;20033;-67
2023/08/12 03:10:30;;;;;;;2.22;1.52;;;22.50;99.90;;;;;;5047179;28;20033;-67
2023/08/12 03:12:56;;;;;;;3.72;1.85;;;22.50;99.90;;;;;;5028208;28;20034;-67
2023/08/12 03:15:22;;;;;;;5.45;2.05;;;22.50;99.90;;;;;;5041581;28;20029;-67
2023/08/12 03:17:47;;;;;;;3.10;1.88;;;22.40;99.90;;;;;;5053282;28;20055;-67
2023/08/12 03:20:13;;;;;;;2.67;1.75;;;22.30;99.90;;;;;;5042161;28;20564;-67
2023/08/12 03:22:39;;;;;;;6.60;1.75;;;22.30;99.90;;;;;;5032888;28;20381;-67
2023/08/12 03:25:05;;;;;;;3.40;1.92;;;22.30;99.90;;;;;;5033544;28;20500;-67
2023/08/12 03:27:31;;;;;;;3.72;2.20;;;22.40;99.90;;;;;;5032152;28;20036;-67
2023/08/12 03:29:57;;;;;;;2.70;1.23;;;22.20;99.90;;;;;;5031940;28;20037;-67
2023/08/12 03:32:25;;;;;;;3.70;2.10;;;22.30;99.90;;;;;;5032570;28;20390;-67
2023/08/12 03:34:51;;;;;;;4.75;1.92;;;22.40;99.90;;;;;;5031783;28;20036;-66
2023/08/12 03:37:17;;;;;;;3.47;1.77;;;22.20;99.90;;;;;;5044379;28;20037;-66
2023/08/12 03:39:42;;;;;;;5.07;2.50;;;22.20;99.90;;;;;;5052819;28;20037;-66
2023/08/12 03:42:08;;;;;;;4.93;2.40;;;22.20;99.90;;;;;;5052855;28;20044;-66
2023/08/12 03:44:34;;;;;;;5.07;2.33;;;22.20;99.90;;;;;;5052471;28;20389;-66
2023/08/12 03:46:59;;;;;;;5.57;1.95;;;22.10;99.90;;;;;;5052944;28;20495;-66
2023/08/12 03:49:25;;;;;;;4.40;1.95;;;22.10;99.90;;;;;;5052654;28;20029;-66
2023/08/12 03:51:51;;;;;;;17.13;3.33;;;22.10;99.90;;;;;;5052739;28;20867;-66
2023/08/12 03:54:18;;;;;;;3.15;2.08;;;22.10;99.90;;;;;;5051822;28;20029;-67
2023/08/12 03:56:43;;;;;;;4.97;2.30;;;22.10;99.90;;;;;;5051559;28;20037;-67
2023/08/12 03:59:09;;;;;;;5.05;2.92;;;22.10;99.90;;;;;;5052706;28;20021;-67
2023/08/12 04:01:36;;;;;;;5.32;2.47;;;22.20;99.90;;;;;;5052516;28;20021;-67
2023/08/12 04:04:02;;;;;;;3.83;2.15;;;22.20;99.90;;;;;;5051648;28;20029;-67
2023/08/12 04:06:28;;;;;;;7.18;2.50;;;22.10;99.90;;;;;;5052288;28;20041;-66
2023/08/12 04:08:53;;;;;;;3.20;2.00;;;22.20;99.90;;;;;;5052201;28;20037;-67
2023/08/12 04:11:19;;;;;;;4.50;2.30;;;22.30;99.90;;;;;;5042069;28;20397;-67
2023/08/12 04:13:45;;;;;;;4.70;2.20;;;22.10;99.90;;;;;;5030286;28;20044;-67
2023/08/12 04:16:11;;;;;;;3.53;2.13;;;22.10;99.90;;;;;;5049470;28;20143;-67
2023/08/12 04:18:36;;;;;;;3.70;1.83;;;22.20;99.90;;;;;;5052175;28;20021;-67
2023/08/12 04:21:02;;;;;;;3.50;2.22;;;22.00;99.90;;;;;;5052009;28;20104;-67
2023/08/12 04:23:28;;;;;;;6.82;2.67;;;22.10;99.90;;;;;;5051196;28;20040;-67
2023/08/12 04:25:56;;;;;;;4.78;1.83;;;21.90;99.90;;;;;;5051714;28;20044;-66
2023/08/12 04:28:22;;;;;;;13.00;2.33;;;21.80;99.90;;;;;;5045589;28;20086;-66
2023/08/12 04:30:50;;;;;;;7.93;2.38;;;21.90;99.90;;;;;;5050561;28;20033;-66
2023/08/12 04:33:16;;;;;;;5.13;2.30;;;21.90;99.90;;;;;;5049599;28;20090;-66
2023/08/12 04:35:42;;;;;;;5.25;2.25;;;21.90;99.90;;;;;;5050460;28;20032;-66
2023/08/12 04:38:08;;;;;;;5.38;2.58;;;21.80;99.90;;;;;;5051791;28;20024;-67
2023/08/12 04:40:34;;;;;;;2.95;1.88;;;21.80;99.90;;;;;;5051706;28;20025;-67
2023/08/12 04:43:00;;;;;;;5.60;2.13;;;21.60;99.90;;;;;;5051295;28;20490;-67
2023/08/12 04:45:26;;;;;;;5.38;2.25;;;21.70;99.90;;;;;;5051698;28;20040;-65
2023/08/12 04:47:52;;;;;;;3.70;2.25;;;21.50;99.90;;;;;;5067321;28;20056;-66
2023/08/12 04:50:18;;;;;;;4.63;2.13;;;21.50;99.90;;;;;;5051713;28;20032;-66
2023/08/12 04:52:44;;;;;;;3.95;2.45;;;21.50;99.90;;;;;;5050859;28;20508;-66
2023/08/12 04:55:13;;;;;;;3.67;2.33;;;21.60;99.90;;;;;;5050018;28;20469;-66
2023/08/12 04:57:39;;;;;;;5.22;2.35;;;21.40;99.90;;;;;;5039052;28;20032;-68
2023/08/12 05:00:09;;;;;;;4.57;2.35;;;21.60;99.90;;;;;;5013215;28;20398;-68
2023/08/12 05:02:35;;;;;;;3.85;2.35;;;21.70;99.90;;;;;;5017489;28;20080;-68
2023/08/12 05:05:01;;;;;;;5.90;2.55;;;21.70;99.90;;;;;;5042123;28;20033;-68
2023/08/12 05:07:27;;;;;;;5.07;2.45;;;21.70;99.90;;;;;;5046353;28;20025;-68
2023/08/12 05:09:53;;;;;;;3.90;2.45;;;21.70;99.90;;;;;;5031291;28;20112;-66
2023/08/12 05:12:19;;;;;;;4.28;2.42;;;21.70;99.90;;;;;;5048857;28;20082;-68
2023/08/12 05:14:45;;;;;;;4.85;3.08;;;21.50;99.90;;;;;;5046278;28;20476;-68
2023/08/12 05:17:11;;;;;;;5.00;2.65;;;21.40;99.90;;;;;;5030973;28;20018;-68
2023/08/12 05:19:36;;;;;;;5.90;2.20;;;21.50;99.90;;;;;;5031211;28;20113;-68
2023/08/12 05:22:02;;;;;;;6.45;2.53;;;21.50;99.90;;;;;;5030802;28;20025;-67
2023/08/12 05:24:28;;;;;;;3.72;2.40;;;21.50;99.90;;;;;;5030239;28;20033;-72
2023/08/12 05:26:54;;;;;;;6.97;2.65;;;21.50;99.90;;;;;;5029749;28;20048;-68
2023/08/12 05:29:19;;;;;;;9.35;2.50;;;21.50;99.90;;;;;;5031101;28;20512;-70
2023/08/12 05:31:45;;;;;;;2.75;1.88;;;21.50;99.90;;;;;;5046913;28;20040;-69
2023/08/12 05:34:11;;;;;;;5.47;3.10;;;21.70;99.90;;;;;;5049967;28;20504;-68
2023/08/12 05:36:37;;;;;;;8.50;2.00;;;21.70;99.90;;;;;;5050055;28;20029;-68
2023/08/12 05:39:03;;;;;;;4.03;2.28;;;21.80;99.90;;;;;;5050810;28;20033;-68
2023/08/12 05:41:29;;;;;;;5.20;2.20;;;21.70;99.90;;;;;;5049379;28;20033;-68
2023/08/12 05:43:55;;;;;;;4.63;2.03;;;21.80;99.90;;;;;;5048486;28;20029;-69
2023/08/12 05:46:20;;;;;;;4.43;2.40;;;21.90;99.90;;;;;;5050750;28;20358;-70
2023/08/12 05:48:46;;;;;;;6.13;2.17;;;21.80;99.90;;;;;;5050764;28;20035;-68
2023/08/12 05:51:12;;;;;;;8.75;2.10;;;21.80;99.90;;;;;;5049045;28;20114;-69
2023/08/12 05:53:38;;;;;;;7.00;3.03;;;21.90;99.90;;;;;;5049570;28;20131;-68
2023/08/12 05:56:04;;;;;;;5.13;2.75;;;21.90;99.90;;;;;;5050738;28;20032;-68
2023/08/12 05:58:30;;;;;;;6.28;3.17;;;21.70;99.90;;;;;;5050812;28;20029;-68
2023/08/12 06:00:56;;;;;;;4.88;2.42;;;21.80;99.90;;;;;;5050540;28;20105;-68
2023/08/12 06:03:22;;;;;;;6.45;3.08;;;21.80;99.90;;;;;;5030030;28;20095;-68
2023/08/12 06:05:48;;;;;;;6.68;2.70;;;21.90;99.90;;;;;;5026190;28;20774;-65
2023/08/12 06:08:14;;;;;;;5.10;2.50;;;22.00;99.90;;;;;;5050174;28;20481;-62
2023/08/12 06:10:40;;;;;;;12.75;2.60;;;22.10;99.90;;;;;;5045588;28;20079;-64
2023/08/12 06:13:06;;;;;;;5.88;2.65;;;22.30;99.90;;;;;;5042093;28;20090;-65
2023/08/12 06:15:33;;;;;;;5.43;2.40;;;22.30;99.90;;;;;;5035328;28;20472;-64
2023/08/12 06:18:00;;;;;;;6.13;2.47;;;22.50;99.90;;;;;;5059074;28;20026;-64
2023/08/12 06:20:26;;;;;;;3.42;2.03;;;22.50;99.90;;;;;;5046261;28;20585;-64
2023/08/12 06:22:52;;;;;;;5.57;2.33;;;22.70;99.90;;;;;;5040775;28;20033;-65
2023/08/12 06:25:19;;;;;;;3.03;1.92;;;22.90;99.90;;;;;;5048768;28;20029;-64
2023/08/12 06:27:46;;;;;;;3.58;2.28;;;23.00;99.90;;;;;;5050283;28;20059;-64
2023/08/12 06:30:13;;;;;;;4.13;2.17;;;23.10;99.90;;;;;;5049808;28;20029;-63
2023/08/12 06:32:39;;;;;;;7.70;1.70;;;23.10;99.90;;;;;;5049342;28;20124;-65
2023/08/12 06:35:05;;;;;;;5.90;2.17;;;22.90;99.90;;;;;;5049788;28;20033;-63
2023/08/12 06:37:31;;;;;;;9.52;2.42;;;23.20;99.90;;;;;;5049003;28;20048;-63
2023/08/12 06:39:57;;;;;;;5.50;2.28;;;23.20;99.90;;;;;;5048641;28;20464;-63
2023/08/12 06:42:23;;;;;;;3.28;1.80;;;23.20;99.90;;;;;;5049384;28;20063;-63
2023/08/12 06:44:57;;;;;;;4.07;2.30;;;23.20;99.90;;;;;;5048738;28;20017;-64
2023/08/12 06:47:24;;;;;;;2.97;1.67;;;23.50;99.90;;;;;;5030154;28;20061;-64
2023/08/12 06:49:49;;;;;;;3.28;2.10;;;23.50;99.90;;;;;;5032130;28;20025;-63
2023/08/12 06:52:18;;;;;;;3.80;1.73;;;23.80;99.90;;;;;;5043223;28;20079;-64
2023/08/12 06:54:44;;;;;;;3.92;1.90;;;23.60;99.90;;;;;;5043066;28;20029;-64
2023/08/12 06:57:11;;;;;;;3.13;1.90;;;23.40;99.90;;;;;;5058350;28;20036;-64
2023/08/12 06:59:38;;;;;;;3.33;1.52;;;23.50;99.90;;;;;;5027880;28;20052;-63
2023/08/12 07:02:04;;;;;;;3.25;1.67;;;23.50;99.90;;;;;;5065052;28;20039;-63
2023/08/12 07:04:30;;;;;;;4.65;2.03;;;23.50;99.90;;;;;;5049824;28;20044;-63
2023/08/12 07:06:55;;;;;;;3.05;1.88;;;23.60;99.90;;;;;;5053518;28;20048;-62
2023/08/12 07:09:21;;;;;;;2.35;1.45;;;23.60;99.90;;;;;;5041123;28;20056;-71
2023/08/12 07:11:47;;;;;;;7.07;2.92;;;23.80;99.90;;;;;;5046737;28;20029;-71
2023/08/12 07:14:13;;;;;;;3.72;2.05;;;23.90;99.90;;;;;;5052449;28;20535;-71
2023/08/12 07:16:38;;;;;;;11.45;1.55;;;24.00;99.90;;;;;;5054263;28;20029;-72
2023/08/12 07:19:05;;;;;;;6.45;2.33;;;24.10;99.90;;;;;;5053688;28;20048;-72
2023/08/12 07:21:30;;;;;;;4.15;2.10;;;24.10;99.90;;;;;;5053073;28;20078;-72
2023/08/12 07:23:56;;;;;;;4.45;2.35;;;24.30;99.90;;;;;;5052565;28;20192;-72
2023/08/12 07:26:22;;;;;;;5.07;2.60;;;24.30;99.90;;;;;;5052010;28;20033;-72
2023/08/12 07:28:48;;;;;;;3.95;2.28;;;24.30;99.90;;;;;;5053116;28;20045;-71
2023/08/12 07:31:14;;;;;;;6.30;2.00;;;24.30;99.90;;;;;;5052812;28;20044;-71
2023/08/12 07:33:39;;;;;;;4.97;2.13;;;24.40;99.90;;;;;;5052386;28;20032;-72
2023/08/12 07:36:05;;;;;;;4.82;2.05;;;24.30;99.90;;;;;;5053256;28;20487;-72
2023/08/12 07:38:31;;;;;;;4.40;1.88;;;24.20;99.90;;;;;;5053176;28;20043;-72
2023/08/12 07:40:57;;;;;;;2.88;1.67;;;24.10;99.90;;;;;;5052302;28;20025;-72
2023/08/12 07:43:23;;;;;;;3.35;1.77;;;24.00;99.90;;;;;;5052346;28;20630;-71
2023/08/12 07:45:53;;;;;;;6.53;2.03;;;24.00;99.90;;;;;;5060801;28;20040;-72
2023/08/12 07:48:22;;;;;;;4.93;2.00;;;23.90;99.90;;;;;;5071721;28;20042;-72
2023/08/12 07:50:55;;;;;;;8.10;3.00;;;24.00;99.90;;;;;;5072706;28;20472;-71
2023/08/12 07:53:20;;;;;;;5.35;2.42;;;24.00;99.90;;;;;;5070790;28;20378;-71
2023/08/12 07:55:46;;;;;;;4.55;1.98;;;24.00;99.90;;;;;;5072454;28;20030;-71
2023/08/12 07:58:12;;;;;;;3.53;2.40;;;24.00;99.90;;;;;;5072942;28;20028;-71
2023/08/12 08:00:39;;;;;;;6.45;2.15;;;24.30;99.90;;;;;;5070500;28;20034;-71
2023/08/12 08:03:04;;;;;;;5.05;2.38;;;24.30;99.90;;;;;;5070657;28;20108;-71
2023/08/12 08:05:30;;;;;;;6.45;2.50;;;24.00;99.90;;;;;;5072690;28;20532;-71
2023/08/12 08:07:56;;;;;;;5.57;3.17;;;24.00;99.90;;;;;;5071543;28;20082;-71
2023/08/12 08:10:22;;;;;;;5.68;2.72;;;24.30;99.90;;;;;;5068702;28;20042;-71
2023/08/12 08:12:48;;;;;;;4.55;2.80;;;24.70;99.90;;;;;;5051679;28;20060;-71
2023/08/12 08:15:14;;;;;;;6.28;2.92;;;25.10;99.90;;;;;;5054343;28;20063;-71
2023/08/12 08:17:40;;;;;;;7.57;3.40;;;25.20;99.90;;;;;;5071171;28;20568;-71
2023/08/12 08:20:06;;;;;;;5.00;3.13;;;25.20;99.90;;;;;;5044796;28;20060;-71
2023/08/12 08:22:32;;;;;;;5.35;2.78;;;25.10;99.90;;;;;;5031618;28;20025;-70
2023/08/12 08:24:59;;;;;;;12.63;2.67;;;25.20;99.90;;;;;;5031078;28;20040;-71
2023/08/12 08:27:25;;;;;;;5.47;2.90;;;25.20;99.90;;;;;;5030919;28;20083;-71
2023/08/12 08:29:51;;;;;;;6.50;2.80;;;25.10;99.90;;;;;;5032463;28;20037;-71
2023/08/12 08:32:17;;;;;;;5.57;2.35;;;25.00;99.90;;;;;;5033557;28;20025;-70
2023/08/12 08:34:42;;;;;;;5.05;2.50;;;25.30;99.90;;;;;;5051638;28;20029;-71
2023/08/12 08:37:08;;;;;;;4.43;2.33;;;25.50;99.90;;;;;;5052277;28;20087;-72
2023/08/12 08:39:34;;;;;;;3.95;2.10;;;25.70;99.90;;;;;;5044862;28;20044;-72
2023/08/12 08:42:01;;;;;;;5.38;2.15;;;25.50;99.90;;;;;;5049797;28;20511;-72
2023/08/12 08:44:32;;;;;;;3.35;2.17;;;25.70;99.90;;;;;;5042581;28;20033;-71
2023/08/12 08:46:59;;;;;;;4.03;1.98;;;25.60;99.90;;;;;;5043579;28;20075;-71
2023/08/12 08:49:26;;;;;;;4.72;2.42;;;25.80;99.90;;;;;;5049345;28;20035;-62
2023/08/12 08:51:52;;;;;;;1.90;1.30;;;25.80;99.90;;;;;;5051487;28;20035;-62
2023/08/12 08:54:20;;;;;;;5.60;2.40;;;26.10;99.90;;;;;;5029848;28;20532;-71
2023/08/12 08:56:47;;;;;;;6.40;2.40;;;26.10;99.90;;;;;;5030365;28;20025;-55
2023/08/12 08:59:13;;;;;;;6.75;2.42;;;26.10;99.90;;;;;;5042504;28;20039;-70
2023/08/12 09:01:40;;;;;;;4.97;1.73;;;26.20;99.90;;;;;;5044900;28;20037;-72
2023/08/12 09:04:07;;;;;;;3.42;2.10;;;26.60;99.90;;;;;;5042094;28;20029;-71
2023/08/12 09:06:39;;;;;;;5.05;2.00;;;26.60;99.90;;;;;;5044203;28;20512;-72
2023/08/12 09:09:10;;;;;;;3.85;1.73;;;26.40;99.90;;;;;;5037334;28;20132;-72
2023/08/12 09:11:39;;;;;;;4.25;1.80;;;26.40;99.90;;;;;;5038255;28;20038;-72
2023/08/12 09:14:06;;;;;;;5.30;2.10;;;26.60;99.90;;;;;;5045589;28;20029;-71
2023/08/12 09:16:32;;;;;;;3.72;2.33;;;26.50;99.90;;;;;;5058084;28;20025;-71
2023/08/12 09:18:58;;;;;;;3.05;1.67;;;26.20;99.90;;;;;;5047747;28;20055;-71
2023/08/12 09:21:24;;;;;;;4.55;2.03;;;26.20;99.90;;;;;;5046262;28;20021;-71
2023/08/12 09:23:50;;;;;;;3.42;2.10;;;26.30;99.90;;;;;;5035728;28;20083;-71
2023/08/12 09:26:18;;;;;;;4.55;2.38;;;26.30;99.90;;;;;;5044713;28;20089;-70
2023/08/12 09:28:45;;;;;;;3.55;1.80;;;26.40;99.90;;;;;;5046326;28;20041;-70
2023/08/12 09:31:26;;;;;;;3.20;1.95;;;26.80;99.90;;;;;;5047269;28;20044;-70
2023/08/12 09:33:53;;;;;;;4.45;1.95;;;26.70;99.90;;;;;;5043846;28;20029;-71
2023/08/12 09:36:20;;;;;;;3.88;2.33;;;26.60;99.90;;;;;;5024673;28;20021;-71
2023/08/12 09:38:46;;;;;;;4.32;2.25;;;26.70;99.90;;;;;;5049364;28;20020;-73
2023/08/12 09:41:12;;;;;;;4.50;1.95;;;26.70;99.90;;;;;;5048828;28;20043;-70
2023/08/12 09:43:42;;;;;;;3.58;2.15;;;27.00;99.90;;;;;;5046845;28;20037;-70
2023/08/12 09:46:15;;;;;;;6.60;2.20;;;27.20;99.90;;;;;;5047985;28;20037;-69
2023/08/12 09:48:42;;;;;;;3.85;1.90;;;27.40;99.90;;;;;;5050499;28;20039;-69
2023/08/12 09:51:09;;;;;;;3.88;2.20;;;27.10;99.90;;;;;;5049618;28;20052;-70
2023/08/12 09:53:35;;;;;;;4.25;1.98;;;27.30;99.90;;;;;;5048689;28;20439;-70
2023/08/12 09:56:10;;;;;;;4.63;1.77;;;27.70;99.90;;;;;;5048854;28;20033;-69
2023/08/12 09:58:37;;;;;;;3.60;1.90;;;27.40;99.90;;;;;;5048656;28;20029;-70
2023/08/12 10:01:07;;;;;;;4.03;2.03;;;27.40;99.90;;;;;;5049072;28;20471;-70
2023/08/12 10:03:37;;;;;;;3.05;1.67;;;27.60;99.90;;;;;;5048169;28;20027;-72
2023/08/12 10:06:03;;;;;;;3.72;2.08;;;27.70;99.90;;;;;;5050343;28;20045;-69
2023/08/12 10:08:31;;;;;;;2.97;1.95;;;27.90;99.90;;;;;;5050554;28;20079;-69
2023/08/12 10:10:57;;;;;;;5.00;2.17;;;27.70;99.90;;;;;;5045504;28;20029;-68
2023/08/12 10:13:23;;;;;;;2.83;1.70;;;27.70;99.90;;;;;;5028584;28;20052;-70
2023/08/12 10:15:50;;;;;;;5.22;2.22;;;28.00;99.90;;;;;;5046410;28;20024;-69
2023/08/12 10:18:18;;;;;;;2.63;1.55;;;28.10;99.90;;;;;;5037103;28;20049;-69
2023/08/12 10:20:44;;;;;;;5.75;2.40;;;27.50;99.90;;;;;;5031722;28;20041;-69
2023/08/12 10:23:20;;;;;;;3.78;1.90;;;27.60;99.90;;;;;;5029549;28;20033;-69
2023/08/12 10:25:49;;;;;;;3.83;2.13;;;27.40;99.90;;;;;;5037242;28;20071;-69
2023/08/12 10:28:18;;;;;;;3.97;2.08;;;27.50;99.90;;;;;;5050406;28;20025;-67
2023/08/12 10:30:45;;;;;;;8.82;2.25;;;27.60;99.90;;;;;;5053418;28;20048;-69
2023/08/12 10:33:11;;;;;;;4.63;1.75;;;27.70;99.90;;;;;;5053331;28;20082;-70
2023/08/12 10:35:46;;;;;;;5.70;2.58;;;27.70;99.90;;;;;;5036466;28;20021;-70
2023/08/12 10:38:16;;;;;;;13.18;4.65;;;27.90;99.90;;;;;;5053751;28;20032;-69
2023/08/12 10:40:42;;;;;;;5.80;2.28;;;27.80;99.90;;;;;;5062900;28;20115;-70
2023/08/12 10:43:08;;;;;;;3.42;2.05;;;27.60;99.90;;;;;;5067945;28;20086;-71
2023/08/12 10:45:49;;;;;;;6.63;3.78;;;27.60;99.90;;;;;;5047119;28;20466;-70
2023/08/12 10:48:23;;;;;;;3.88;2.05;;;27.30;99.90;;;;;;5049033;28;20045;-70
2023/08/12 10:50:58;;;;;;;4.32;2.10;;;27.30;99.90;;;;;;5032830;28;20037;-71
2023/08/12 10:53:31;;;;;;;6.13;2.42;;;27.30;99.90;;;;;;5031716;28;20116;-69
2023/08/12 10:56:03;;;;;;;3.35;1.50;;;27.10;99.90;;;;;;5048699;28;20143;-69
2023/08/12 10:58:43;;;;;;;4.50;2.33;;;27.00;99.90;;;;;;5043286;28;20026;-70
2023/08/12 11:01:16;;;;;;;3.15;1.60;;;27.30;99.90;;;;;;5052588;28;20029;-70
2023/08/12 11:03:47;;;;;;;5.30;2.28;;;27.20;99.90;;;;;;5053108;28;20044;-69
2023/08/12 11:06:13;;;;;;;3.97;2.22;;;27.00;99.90;;;;;;5053717;28;20039;-58
2023/08/12 11:08:52;;;;;;;3.65;2.25;;;26.90;99.90;;;;;;5053839;28;20072;-58
2023/08/12 11:11:25;;;;;;;4.97;2.65;;;26.80;99.90;;;;;;5042718;28;20047;-59
2023/08/12 11:13:57;;;;;;;3.70;2.33;;;26.80;99.90;;;;;;5031129;28;20021;-58
2023/08/12 11:16:36;;;;;;;3.55;1.67;;;26.80;99.90;;;;;;5059120;28;20028;-74
2023/08/12 11:19:03;;;;;;;4.00;1.77;;;26.90;99.90;;;;;;5050760;28;20651;-69
2023/08/12 11:21:29;;;;;;;5.10;2.50;;;26.50;99.90;;;;;;5051832;28;20104;-69
2023/08/12 11:23:55;;;;;;;7.78;1.65;;;25.60;99.90;;;;;;5051121;28;20080;-69
2023/08/12 11:26:23;;;;;;;8.32;1.33;;;24.80;99.90;;;;;;5052208;28;20086;-70
2023/08/12 11:28:49;;;;;;;5.90;1.52;;;24.00;99.90;;;;;;5035648;28;20473;-70
2023/08/12 11:31:17;;;;;;;4.80;1.90;;;23.30;99.90;;;;;;5051886;28;20056;-72
2023/08/12 11:33:43;;;;;;;2.10;0.68;;;22.90;99.90;;;;;;5034830;28;20508;-73
2023/08/12 11:36:09;;;;;;;1.15;0.60;;;22.50;99.90;;;;;;5050202;28;20032;-73
2023/08/12 11:38:35;;;;;;;9.52;1.02;;;21.90;99.90;;;;;;5046719;28;20548;-73
2023/08/12 11:41:02;;;;;;;4.38;1.17;;;21.70;99.90;;;;;;5045384;28;20452;-83
2023/08/12 11:43:30;;;;;;;5.25;0.85;;;21.70;99.90;;;;;;5046616;28;20037;-69
2023/08/12 11:45:56;;;;;;;8.27;3.50;;;21.60;99.90;;;;;;5034728;28;20088;-71
2023/08/12 11:48:23;;;;;;;4.53;1.85;;;21.50;99.90;;;;;;5051863;28;20180;-71
2023/08/12 11:50:50;;;;;;;2.67;0.82;;;21.50;99.90;;;;;;5051545;28;20116;-71
2023/08/12 11:53:16;;;;;;;8.45;2.25;;;21.10;99.90;;;;;;5050922;28;20029;-72
2023/08/12 11:55:42;;;;;;;5.90;1.48;;;21.20;99.90;;;;;;5051766;28;20037;-70
2023/08/12 11:58:09;;;;;;;3.10;1.30;;;21.10;99.90;;;;;;5051488;28;20043;-70
2023/08/12 12:00:35;;;;;;;1.98;1.10;;;21.10;99.90;;;;;;5048865;28;20020;-71
2023/08/12 12:03:02;;;;;;;3.55;1.70;;;21.10;99.90;;;;;;5066435;28;20037;-70
2023/08/12 12:05:33;;;;;;;7.25;1.85;;;21.10;99.90;;;;;;5048753;28;20064;-70
2023/08/12 12:08:00;;;;;;;7.13;3.65;;;21.20;99.90;;;;;;5067083;28;20036;-66
2023/08/12 12:10:30;;;;;;;2.97;1.58;;;21.20;99.90;;;;;;5052126;28;20036;-69
2023/08/12 12:12:57;;;;;;;3.78;1.63;;;21.20;99.90;;;;;;5050622;28;20120;-68
2023/08/12 12:15:23;;;;;;;6.43;2.05;;;21.20;99.90;;;;;;5056557;28;20033;-71
2023/08/12 12:17:52;;;;;;;2.17;1.30;;;21.40;99.90;;;;;;5071390;28;20024;-71
2023/08/12 12:20:19;;;;;;;3.30;1.40;;;21.60;99.90;;;;;;5060464;28;20029;-74
2023/08/12 12:22:45;;;;;;;4.78;1.52;;;21.70;99.90;;;;;;5030647;28;20029;-68
2023/08/12 12:25:14;;;;;;;5.20;1.95;;;21.90;99.90;;;;;;5032177;28;20109;-71
2023/08/12 12:27:41;;;;;;;6.95;1.50;;;22.00;99.90;;;;;;5032400;28;20057;-70
2023/08/12 12:30:13;;;;;;;3.42;1.50;;;22.20;99.90;;;;;;5014701;28;20032;-71
2023/08/12 12:32:39;;;;;;;5.55;1.73;;;22.40;99.90;;;;;;5033552;28;20393;-70
2023/08/12 12:35:09;;;;;;;2.35;1.38;;;22.30;99.90;;;;;;5031368;28;20025;-69
2023/08/12 12:37:36;;;;;;;5.18;1.70;;;22.20;99.90;;;;;;5047098;28;20389;-71
2023/08/12 12:40:03;;;;;;;4.18;1.50;;;22.50;99.90;;;;;;5031949;28;20036;-71
2023/08/12 12:42:29;;;;;;;2.90;1.45;;;22.90;99.90;;;;;;5030476;28;20047;-70
2023/08/12 12:44:55;;;;;;;1.63;0.93;;;23.20;99.90;;;;;;5033273;28;20041;-76
2023/08/12 12:47:21;;;;;;;7.25;1.80;;;23.60;99.90;;;;;;5071332;28;20046;-71